Time;durP1;ratioP1;P1;durP2;ratioP2;P2;SDS_P1;SDS_P2;PMS_P1;PMS_P2;Temp;Humidity;BMP_temperature;BMP_pressure;BME280_temperature;BME280_humidity;BME280_pressure;Samples;Min_cycle;Max_cycle;Signal;HPM_P1;HPM_P2
2021/08/31 00:01:50;;;;;;;11.10;9.30;;;;;;;;;;5098984;28;20447;-75
2021/08/31 00:04:22;;;;;;;12.87;9.37;;;;;;;;;;5098693;28;20867;-75
2021/08/31 00:06:51;;;;;;;15.10;10.03;;;;;;;;;;5097841;28;20525;-75
2021/08/31 00:09:24;;;;;;;11.73;9.27;;;;;;;;;;5098179;28;20443;-76
2021/08/31 00:11:53;;;;;;;12.03;9.77;;;;;;;;;;5097454;28;20458;-75
2021/08/31 00:14:25;;;;;;;14.20;9.50;;;;;;;;;;5097697;28;20502;-75
2021/08/31 00:16:55;;;;;;;13.03;9.37;;;;;;;;;;5097275;28;20479;-75
2021/08/31 00:19:24;;;;;;;13.03;9.97;;;;;;;;;;5096785;28;20488;-74
2021/08/31 00:21:52;;;;;;;13.13;9.53;;;;;;;;;;5097699;28;20447;-75
2021/08/31 00:24:26;;;;;;;11.90;9.00;;;;;;;;;;5096995;28;20743;-75
2021/08/31 00:26:55;;;;;;;15.70;11.07;;;;;;;;;;5096452;28;20491;-75
2021/08/31 00:29:24;;;;;;;13.23;10.50;;;;;;;;;;5098080;28;20444;-75
2021/08/31 00:31:53;;;;;;;11.13;9.00;;;;;;;;;;5097156;28;20481;-75
2021/08/31 00:34:22;;;;;;;13.50;10.63;;;;;;;;;;5097198;28;20477;-75
2021/08/31 00:36:55;;;;;;;12.00;9.73;;;;;;;;;;5097600;28;20878;-75
2021/08/31 00:39:25;;;;;;;14.83;9.57;;;;;;;;;;5097413;28;20542;-75
2021/08/31 00:41:57;;;;;;;13.27;9.37;;;;;;;;;;5097305;28;20463;-75
2021/08/31 00:44:29;;;;;;;15.63;9.43;;;;;;;;;;5097171;28;20734;-75
2021/08/31 00:46:58;;;;;;;13.87;10.07;;;;;;;;;;5097085;28;20943;-75
2021/08/31 00:49:28;;;;;;;13.00;9.63;;;;;;;;;;5088827;28;20470;-75
2021/08/31 00:51:57;;;;;;;12.60;9.10;;;;;;;;;;5095193;28;20525;-75
2021/08/31 00:54:29;;;;;;;14.33;8.40;;;;;;;;;;5088583;28;20448;-75
2021/08/31 00:56:59;;;;;;;11.70;9.40;;;;;;;;;;5096818;28;20894;-74
2021/08/31 00:59:27;;;;;;;12.40;8.90;;;;;;;;;;5097151;28;20447;-75
2021/08/31 01:01:57;;;;;;;14.20;8.50;;;;;;;;;;5096633;28;20451;-75
2021/08/31 01:04:27;;;;;;;11.10;8.73;;;;;;;;;;5096616;28;20452;-74
2021/08/31 01:06:57;;;;;;;13.80;8.50;;;;;;;;;;5096522;28;20499;-76
2021/08/31 01:09:26;;;;;;;12.50;9.37;;;;;;;;;;5096749;28;20550;-76
2021/08/31 01:11:58;;;;;;;17.60;9.10;;;;;;;;;;5097069;28;20468;-75
2021/08/31 01:14:28;;;;;;;13.83;8.90;;;;;;;;;;5096978;28;20471;-75
2021/08/31 01:16:57;;;;;;;16.13;9.37;;;;;;;;;;5096692;28;20509;-75
2021/08/31 01:19:30;;;;;;;10.00;7.73;;;;;;;;;;5096509;28;20513;-75
2021/08/31 01:22:00;;;;;;;11.93;8.73;;;;;;;;;;5096364;28;20456;-75
2021/08/31 01:24:30;;;;;;;10.20;8.23;;;;;;;;;;5080107;28;20792;-75
2021/08/31 01:27:01;;;;;;;10.80;7.53;;;;;;;;;;5096290;28;20552;-75
2021/08/31 01:29:30;;;;;;;14.07;8.47;;;;;;;;;;5096639;28;20447;-75
2021/08/31 01:32:02;;;;;;;11.70;8.60;;;;;;;;;;5096000;28;20522;-75
2021/08/31 01:34:31;;;;;;;11.90;8.37;;;;;;;;;;5096415;28;20443;-75
2021/08/31 01:37:00;;;;;;;11.00;7.90;;;;;;;;;;5096100;28;20459;-75
2021/08/31 01:39:29;;;;;;;11.37;9.57;;;;;;;;;;5096442;28;20472;-75
2021/08/31 01:42:01;;;;;;;11.40;7.57;;;;;;;;;;5096713;28;20529;-75
2021/08/31 01:44:29;;;;;;;10.07;8.03;;;;;;;;;;5096256;28;20517;-75
2021/08/31 01:46:59;;;;;;;11.17;7.80;;;;;;;;;;5096626;28;20491;-75
2021/08/31 01:49:28;;;;;;;10.73;8.47;;;;;;;;;;5096329;28;20474;-75
2021/08/31 01:51:57;;;;;;;11.07;7.50;;;;;;;;;;5095527;28;20466;-75
2021/08/31 01:54:27;;;;;;;10.97;8.13;;;;;;;;;;5096240;28;20451;-75
2021/08/31 01:56:56;;;;;;;11.90;8.30;;;;;;;;;;5096074;28;20455;-75
2021/08/31 01:59:30;;;;;;;12.67;8.93;;;;;;;;;;5096656;28;20528;-75
2021/08/31 02:01:59;;;;;;;10.10;8.63;;;;;;;;;;5096817;28;20459;-74
2021/08/31 02:04:32;;;;;;;11.87;9.10;;;;;;;;;;5096512;28;20443;-75
2021/08/31 02:07:01;;;;;;;11.40;7.47;;;;;;;;;;5096792;28;20495;-75
2021/08/31 02:09:32;;;;;;;10.80;8.27;;;;;;;;;;5100961;28;20454;-75
2021/08/31 02:12:01;;;;;;;13.60;8.57;;;;;;;;;;5100436;28;20469;-75
2021/08/31 02:14:32;;;;;;;11.40;8.20;;;;;;;;;;5100326;28;20447;-76
2021/08/31 02:17:02;;;;;;;13.10;8.40;;;;;;;;;;5099962;28;20458;-75
2021/08/31 02:19:31;;;;;;;10.87;8.23;;;;;;;;;;5100096;28;20447;-75
2021/08/31 02:22:02;;;;;;;11.33;8.47;;;;;;;;;;5100039;28;20455;-75
2021/08/31 02:24:34;;;;;;;14.33;8.40;;;;;;;;;;5099591;28;20727;-75
2021/08/31 02:27:03;;;;;;;13.37;9.00;;;;;;;;;;5099469;28;20487;-75
2021/08/31 02:29:34;;;;;;;13.33;8.23;;;;;;;;;;5099576;28;20538;-75
2021/08/31 02:32:05;;;;;;;13.10;8.50;;;;;;;;;;5099421;28;20458;-75
2021/08/31 02:34:34;;;;;;;14.17;8.60;;;;;;;;;;5100109;28;20455;-75
2021/08/31 02:37:06;;;;;;;15.20;9.60;;;;;;;;;;5099682;28;20462;-75
2021/08/31 02:39:37;;;;;;;12.93;10.27;;;;;;;;;;5099814;28;20489;-75
2021/08/31 02:42:09;;;;;;;14.63;8.93;;;;;;;;;;5099223;28;20463;-75
2021/08/31 02:44:40;;;;;;;13.93;8.80;;;;;;;;;;5099059;28;20462;-75
2021/08/31 02:47:10;;;;;;;14.13;9.17;;;;;;;;;;5099218;28;20568;-76
2021/08/31 02:49:40;;;;;;;13.83;9.30;;;;;;;;;;5099314;28;20448;-75
2021/08/31 02:52:09;;;;;;;14.40;9.20;;;;;;;;;;5099071;28;20467;-75
2021/08/31 02:54:44;;;;;;;15.53;9.17;;;;;;;;;;5099569;28;20785;-75
2021/08/31 02:57:14;;;;;;;14.00;9.27;;;;;;;;;;5100024;28;20732;-75
2021/08/31 02:59:54;;;;;;;11.57;9.40;;;;;;;;;;5099312;28;20527;-75
2021/08/31 03:02:26;;;;;;;17.30;11.10;;;;;;;;;;5099939;28;20891;-75
2021/08/31 03:04:58;;;;;;;12.87;9.37;;;;;;;;;;5099257;28;20507;-75
2021/08/31 03:07:27;;;;;;;16.60;10.20;;;;;;;;;;5100181;28;20557;-75
2021/08/31 03:09:59;;;;;;;18.13;10.90;;;;;;;;;;5099002;28;20467;-75
2021/08/31 03:12:29;;;;;;;14.93;9.13;;;;;;;;;;5099051;28;20760;-75
2021/08/31 03:15:00;;;;;;;22.97;10.47;;;;;;;;;;5099290;28;20727;-75
2021/08/31 03:17:30;;;;;;;16.03;11.30;;;;;;;;;;5098931;28;20693;-75
2021/08/31 03:19:59;;;;;;;14.27;10.10;;;;;;;;;;5099162;28;20447;-75
2021/08/31 03:22:28;;;;;;;14.77;9.50;;;;;;;;;;5098719;28;20452;-75
2021/08/31 03:24:58;;;;;;;14.23;9.93;;;;;;;;;;5098699;28;20462;-75
2021/08/31 03:27:27;;;;;;;16.17;10.20;;;;;;;;;;5099162;28;20556;-75
2021/08/31 03:30:00;;;;;;;13.07;9.30;;;;;;;;;;5098166;28;20882;-75
2021/08/31 03:32:31;;;;;;;15.10;11.10;;;;;;;;;;5098848;28;20546;-75
2021/08/31 03:35:01;;;;;;;12.33;10.53;;;;;;;;;;5098479;28;20444;-75
2021/08/31 03:37:31;;;;;;;15.37;9.27;;;;;;;;;;5098067;28;20468;-75
2021/08/31 03:40:03;;;;;;;13.70;9.00;;;;;;;;;;5097974;28;20458;-75
2021/08/31 03:42:33;;;;;;;15.80;11.20;;;;;;;;;;5098441;28;20451;-75
2021/08/31 03:45:02;;;;;;;20.97;10.87;;;;;;;;;;5098317;28;20468;-75
2021/08/31 03:47:33;;;;;;;16.87;11.03;;;;;;;;;;5098540;28;20883;-75
2021/08/31 03:50:02;;;;;;;15.77;9.67;;;;;;;;;;5098489;28;20836;-76
2021/08/31 03:52:34;;;;;;;18.07;11.80;;;;;;;;;;5098140;28;20450;-74
2021/08/31 03:55:03;;;;;;;17.37;11.17;;;;;;;;;;5098021;28;20447;-76
2021/08/31 03:57:32;;;;;;;13.93;10.33;;;;;;;;;;5098143;28;20435;-78
2021/08/31 04:00:01;;;;;;;20.97;11.13;;;;;;;;;;5097901;28;20451;-74
2021/08/31 04:02:33;;;;;;;18.40;10.70;;;;;;;;;;5097441;28;20450;-75
2021/08/31 04:05:04;;;;;;;14.77;10.33;;;;;;;;;;5097152;28;20533;-75
2021/08/31 04:07:35;;;;;;;15.80;9.97;;;;;;;;;;5097785;28;20814;-76
2021/08/31 04:10:05;;;;;;;16.93;11.17;;;;;;;;;;5095879;28;20816;-76
2021/08/31 04:12:34;;;;;;;16.60;10.63;;;;;;;;;;5097906;28;20559;-75
2021/08/31 04:15:03;;;;;;;17.83;10.30;;;;;;;;;;5098241;28;20447;-75
2021/08/31 04:17:36;;;;;;;16.83;10.80;;;;;;;;;;5098635;28;20460;-76
2021/08/31 04:20:06;;;;;;;16.30;10.27;;;;;;;;;;5097380;28;20436;-75
2021/08/31 04:22:41;;;;;;;14.00;10.27;;;;;;;;;;5097218;28;20509;-76
2021/08/31 04:25:11;;;;;;;14.70;9.90;;;;;;;;;;5097347;28;20447;-76
2021/08/31 04:27:43;;;;;;;21.30;11.00;;;;;;;;;;5097260;28;20588;-76
2021/08/31 04:30:13;;;;;;;13.63;8.80;;;;;;;;;;5096451;28;20478;-76
2021/08/31 04:32:51;;;;;;;14.90;9.83;;;;;;;;;;5096521;28;20771;-76
2021/08/31 04:35:20;;;;;;;15.17;10.30;;;;;;;;;;5096974;28;20439;-75
2021/08/31 04:37:53;;;;;;;16.20;11.00;;;;;;;;;;5097577;28;20460;-75
2021/08/31 04:40:22;;;;;;;14.40;9.90;;;;;;;;;;5097377;28;20436;-75
2021/08/31 04:42:55;;;;;;;12.27;9.37;;;;;;;;;;5096701;28;20540;-76
2021/08/31 04:45:24;;;;;;;14.70;9.23;;;;;;;;;;5096899;28;20451;-76
2021/08/31 04:47:54;;;;;;;15.80;9.03;;;;;;;;;;5097446;28;20556;-75
2021/08/31 04:50:22;;;;;;;16.90;10.00;;;;;;;;;;5096524;28;20535;-76
2021/08/31 04:52:49;;;;;;;17.70;9.47;;;;;;;;;;5097269;28;20463;-76
2021/08/31 04:55:19;;;;;;;16.73;9.97;;;;;;;;;;5096887;28;20908;-75
2021/08/31 04:57:47;;;;;;;12.50;8.50;;;;;;;;;;5096593;28;20455;-76
2021/08/31 05:00:20;;;;;;;13.50;8.93;;;;;;;;;;5096290;28;20531;-76
2021/08/31 05:02:49;;;;;;;15.50;9.77;;;;;;;;;;5096683;28;20456;-75
2021/08/31 05:05:19;;;;;;;13.93;8.40;;;;;;;;;;5096949;28;20484;-75
2021/08/31 05:07:46;;;;;;;11.10;7.60;;;;;;;;;;5096604;28;21148;-76
2021/08/31 05:10:14;;;;;;;12.17;8.80;;;;;;;;;;5096452;28;20460;-76
2021/08/31 05:12:43;;;;;;;13.43;8.50;;;;;;;;;;5087924;28;20480;-76
2021/08/31 05:15:12;;;;;;;12.70;8.17;;;;;;;;;;5075369;28;20452;-75
2021/08/31 05:17:40;;;;;;;11.40;8.00;;;;;;;;;;5074860;28;20448;-75
2021/08/31 05:20:09;;;;;;;16.13;8.30;;;;;;;;;;5074763;28;20471;-75
2021/08/31 05:22:47;;;;;;;13.57;8.93;;;;;;;;;;5075162;28;20500;-75
2021/08/31 05:25:21;;;;;;;14.03;7.90;;;;;;;;;;5075294;28;20436;-75
2021/08/31 05:27:49;;;;;;;15.63;9.57;;;;;;;;;;5075549;28;20503;-74
2021/08/31 05:30:17;;;;;;;11.13;7.97;;;;;;;;;;5074136;28;20734;-75
2021/08/31 05:32:45;;;;;;;13.00;8.27;;;;;;;;;;5073827;28;20882;-75
2021/08/31 05:35:21;;;;;;;13.13;9.33;;;;;;;;;;5074126;28;20535;-75
2021/08/31 05:37:50;;;;;;;12.87;8.80;;;;;;;;;;5074067;28;20458;-76
2021/08/31 05:40:22;;;;;;;9.80;7.40;;;;;;;;;;5074759;28;20444;-75
2021/08/31 05:42:50;;;;;;;12.10;8.60;;;;;;;;;;5072753;28;20452;-75
2021/08/31 05:45:17;;;;;;;12.50;8.70;;;;;;;;;;5075616;28;20498;-75
2021/08/31 05:47:45;;;;;;;14.83;7.33;;;;;;;;;;5094696;28;20493;-76
2021/08/31 05:50:13;;;;;;;11.93;7.97;;;;;;;;;;5094282;28;20462;-76
2021/08/31 05:52:42;;;;;;;12.57;8.20;;;;;;;;;;5093155;28;20828;-76
2021/08/31 05:55:15;;;;;;;15.43;8.37;;;;;;;;;;5095034;28;20455;-76
2021/08/31 05:57:43;;;;;;;12.53;8.43;;;;;;;;;;5094687;28;20450;-76
2021/08/31 06:00:12;;;;;;;12.67;7.93;;;;;;;;;;5093453;28;20456;-76
2021/08/31 06:02:42;;;;;;;10.90;8.30;;;;;;;;;;5094921;28;20874;-76
2021/08/31 06:05:10;;;;;;;11.77;7.60;;;;;;;;;;5094956;28;20562;-76
2021/08/31 06:07:38;;;;;;;18.20;8.60;;;;;;;;;;5096125;28;20479;-74
2021/08/31 06:10:06;;;;;;;11.30;8.10;;;;;;;;;;5081347;28;20452;-77
2021/08/31 06:12:38;;;;;;;12.80;8.93;;;;;;;;;;5094985;28;20798;-76
2021/08/31 06:15:07;;;;;;;10.43;8.47;;;;;;;;;;5095216;28;20905;-76
2021/08/31 06:17:37;;;;;;;12.10;8.60;;;;;;;;;;5097085;28;20444;-76
2021/08/31 06:20:08;;;;;;;13.67;8.57;;;;;;;;;;5095500;28;20464;-76
2021/08/31 06:22:36;;;;;;;9.43;6.20;;;;;;;;;;5084546;28;20487;-74
2021/08/31 06:25:04;;;;;;;14.33;7.20;;;;;;;;;;5073874;28;20539;-75
2021/08/31 06:27:32;;;;;;;11.20;6.90;;;;;;;;;;5077640;28;20511;-75
2021/08/31 06:30:02;;;;;;;16.13;7.77;;;;;;;;;;5092447;28;20993;-75
2021/08/31 06:32:30;;;;;;;11.40;8.13;;;;;;;;;;5082596;28;20877;-75
2021/08/31 06:37:46;;;;;;;11.50;7.50;;;;;;;;;;5075535;28;20422;-73
2021/08/31 06:40:14;;;;;;;11.63;7.40;;;;;;;;;;5074895;28;20460;-74
2021/08/31 06:42:43;;;;;;;14.27;8.63;;;;;;;;;;5074652;28;20458;-76
2021/08/31 06:45:14;;;;;;;12.83;7.90;;;;;;;;;;5075055;28;20488;-74
2021/08/31 06:47:45;;;;;;;11.67;7.67;;;;;;;;;;5074439;28;20741;-74
2021/08/31 06:50:16;;;;;;;12.50;7.53;;;;;;;;;;5086827;28;20479;-74
2021/08/31 06:52:43;;;;;;;13.63;8.43;;;;;;;;;;5094255;28;20904;-75
2021/08/31 06:55:12;;;;;;;8.87;5.90;;;;;;;;;;5097366;28;20450;-74
2021/08/31 06:57:46;;;;;;;11.17;7.13;;;;;;;;;;5106992;28;20546;-74
2021/08/31 07:00:18;;;;;;;11.53;7.20;;;;;;;;;;5101569;28;20462;-74
2021/08/31 07:03:02;;;;;;;9.73;6.33;;;;;;;;;;5118613;28;20454;-75
2021/08/31 07:08:21;;;;;;;10.20;7.00;;;;;;;;;;5106184;28;20555;-75
2021/08/31 07:10:51;;;;;;;11.63;6.90;;;;;;;;;;5098617;28;20539;-74
2021/08/31 07:13:20;;;;;;;11.70;6.60;;;;;;;;;;5097273;28;20459;-74
2021/08/31 07:15:49;;;;;;;13.20;7.17;;;;;;;;;;5097267;28;20451;-74
2021/08/31 07:18:20;;;;;;;9.77;6.10;;;;;;;;;;5100741;28;20447;-74
2021/08/31 07:20:48;;;;;;;8.70;6.83;;;;;;;;;;5087086;28;20495;-74
2021/08/31 07:23:16;;;;;;;9.27;6.50;;;;;;;;;;5079085;28;20841;-74
2021/08/31 07:25:46;;;;;;;12.10;5.93;;;;;;;;;;5078898;28;20453;-74
2021/08/31 07:28:14;;;;;;;10.90;5.73;;;;;;;;;;5077585;28;20527;-74
2021/08/31 07:30:42;;;;;;;8.20;5.50;;;;;;;;;;5082541;28;20540;-74
2021/08/31 07:33:13;;;;;;;12.57;7.40;;;;;;;;;;5098198;28;20533;-73
2021/08/31 07:35:43;;;;;;;9.97;7.57;;;;;;;;;;5078754;28;20468;-74
2021/08/31 07:38:14;;;;;;;11.23;6.37;;;;;;;;;;5091354;28;20554;-74
2021/08/31 07:40:49;;;;;;;10.20;6.27;;;;;;;;;;5096676;28;20871;-74
2021/08/31 07:43:17;;;;;;;7.67;5.43;;;;;;;;;;5098393;28;20455;-74
2021/08/31 07:45:47;;;;;;;10.23;5.90;;;;;;;;;;5095368;28;20455;-75
2021/08/31 07:48:20;;;;;;;11.50;5.83;;;;;;;;;;5096632;28;20519;-75
2021/08/31 07:50:59;;;;;;;10.37;5.90;;;;;;;;;;5095822;28;20959;-75
2021/08/31 07:53:27;;;;;;;10.37;6.60;;;;;;;;;;5096980;28;20456;-76
2021/08/31 07:56:05;;;;;;;9.37;5.90;;;;;;;;;;5096582;28;20461;-75
2021/08/31 07:58:41;;;;;;;7.00;5.57;;;;;;;;;;5103925;28;20447;-73
2021/08/31 08:01:10;;;;;;;9.83;6.40;;;;;;;;;;5092486;28;20466;-75
2021/08/31 08:03:43;;;;;;;9.73;5.50;;;;;;;;;;5104395;28;20437;-75
2021/08/31 08:06:14;;;;;;;9.20;6.23;;;;;;;;;;5116613;28;20465;-75
2021/08/31 08:08:42;;;;;;;8.07;4.83;;;;;;;;;;5106278;28;20480;-75
2021/08/31 08:11:17;;;;;;;6.77;4.60;;;;;;;;;;5095747;28;20452;-75
2021/08/31 08:13:54;;;;;;;8.63;5.53;;;;;;;;;;5095298;28;20458;-75
2021/08/31 08:16:42;;;;;;;;;;;;;;;;;;;;;
2021/08/31 08:19:15;;;;;;;6.53;4.53;;;;;;;;;;5076777;28;20479;-75
2021/08/31 08:21:58;;;;;;;8.20;4.80;;;;;;;;;;5083881;28;20435;-75
2021/08/31 08:24:28;;;;;;;6.57;4.57;;;;;;;;;;5075033;28;20922;-74
2021/08/31 08:26:59;;;;;;;7.87;5.80;;;;;;;;;;5095681;28;20452;-75
2021/08/31 08:29:36;;;;;;;6.47;5.07;;;;;;;;;;5094678;28;20763;-74
2021/08/31 08:32:05;;;;;;;6.83;4.83;;;;;;;;;;5094941;28;20447;-73
2021/08/31 08:35:02;;;;;;;5.60;4.53;;;;;;;;;;5092940;28;20521;-74
2021/08/31 08:37:37;;;;;;;7.83;5.07;;;;;;;;;;5095465;28;20463;-75
2021/08/31 08:40:09;;;;;;;9.73;4.57;;;;;;;;;;5095524;28;20435;-75
2021/08/31 08:42:41;;;;;;;7.20;5.03;;;;;;;;;;5095343;28;20455;-74
2021/08/31 08:45:17;;;;;;;8.47;5.93;;;;;;;;;;5095491;28;20459;-74
2021/08/31 08:47:50;;;;;;;6.23;4.47;;;;;;;;;;5096672;28;20451;-75
2021/08/31 08:50:27;;;;;;;6.67;4.30;;;;;;;;;;5075737;28;20444;-76
2021/08/31 08:52:57;;;;;;;7.57;4.50;;;;;;;;;;5089216;28;20513;-74
2021/08/31 08:55:27;;;;;;;8.60;5.20;;;;;;;;;;5092447;28;20448;-73
2021/08/31 08:57:57;;;;;;;8.33;4.40;;;;;;;;;;5092203;28;20467;-75
2021/08/31 09:00:50;;;;;;;7.20;4.40;;;;;;;;;;5096216;28;20463;-75
2021/08/31 09:03:19;;;;;;;6.80;4.77;;;;;;;;;;5093985;28;20896;-75
2021/08/31 09:05:47;;;;;;;5.10;4.00;;;;;;;;;;5096504;28;20912;-75
2021/08/31 09:08:24;;;;;;;6.30;4.10;;;;;;;;;;5087385;28;20488;-75
2021/08/31 09:11:17;;;;;;;5.27;4.07;;;;;;;;;;5085941;28;20451;-75
2021/08/31 09:13:48;;;;;;;7.73;4.37;;;;;;;;;;5095433;28;21141;-77
2021/08/31 09:16:40;;;;;;;;;;;;;;;;;;;;;
2021/08/31 09:19:08;;;;;;;7.07;4.63;;;;;;;;;;5092018;28;20437;-76
2021/08/31 09:24:45;;;;;;;6.50;3.90;;;;;;;;;;5076291;28;20453;-75
2021/08/31 09:27:32;;;;;;;10.77;4.60;;;;;;;;;;5077727;28;20445;-74
2021/08/31 09:30:18;;;;;;;7.00;4.20;;;;;;;;;;5099159;28;20553;-75
2021/08/31 09:33:01;;;;;;;6.23;3.90;;;;;;;;;;5095929;28;20462;-75
2021/08/31 09:35:33;;;;;;;5.53;4.50;;;;;;;;;;5082914;28;20567;-75
2021/08/31 09:38:53;;;;;;;9.53;5.10;;;;;;;;;;5083850;28;20459;-75
2021/08/31 09:41:35;;;;;;;9.50;6.50;;;;;;;;;;5100011;28;20458;-75
2021/08/31 09:44:10;;;;;;;9.17;4.77;;;;;;;;;;5097264;28;20516;-74
2021/08/31 09:46:49;;;;;;;7.10;4.83;;;;;;;;;;5096325;28;20471;-75
2021/08/31 09:49:26;;;;;;;9.50;4.90;;;;;;;;;;5097054;28;20543;-75
2021/08/31 09:52:12;;;;;;;7.40;5.00;;;;;;;;;;5113067;28;20446;-73
2021/08/31 09:54:41;;;;;;;7.80;3.90;;;;;;;;;;5104652;28;20448;-74
2021/08/31 09:57:26;;;;;;;4.93;3.93;;;;;;;;;;5087502;28;20561;-75
2021/08/31 09:59:59;;;;;;;10.00;5.30;;;;;;;;;;5083571;28;20521;-75
2021/08/31 10:02:27;;;;;;;6.10;4.50;;;;;;;;;;5102966;28;20952;-75
2021/08/31 10:05:00;;;;;;;6.93;4.00;;;;;;;;;;5090893;28;20448;-75
2021/08/31 10:07:31;;;;;;;11.23;4.20;;;;;;;;;;5090282;28;20876;-73
2021/08/31 10:10:08;;;;;;;5.77;4.30;;;;;;;;;;5099149;28;20491;-75
2021/08/31 10:12:39;;;;;;;6.33;3.63;;;;;;;;;;5087288;28;20554;-77
2021/08/31 10:15:10;;;;;;;7.10;4.93;;;;;;;;;;5080770;28;20459;-74
2021/08/31 10:17:57;;;;;;;5.07;3.73;;;;;;;;;;5091515;28;20903;-73
2021/08/31 10:20:36;;;;;;;5.90;4.17;;;;;;;;;;5079140;28;20459;-74
2021/08/31 10:23:04;;;;;;;5.90;4.30;;;;;;;;;;5082155;28;20492;-74
2021/08/31 10:25:40;;;;;;;5.40;4.20;;;;;;;;;;5092921;28;20504;-74
2021/08/31 10:28:22;;;;;;;8.33;5.37;;;;;;;;;;5094033;28;20969;-73
2021/08/31 10:31:02;;;;;;;5.60;4.07;;;;;;;;;;5083808;28;20436;-74
2021/08/31 10:33:39;;;;;;;4.47;3.57;;;;;;;;;;5077556;28;20790;-74
2021/08/31 10:36:12;;;;;;;7.87;4.40;;;;;;;;;;5094638;28;20431;-75
2021/08/31 10:38:48;;;;;;;8.90;6.23;;;;;;;;;;5093166;28;20550;-73
2021/08/31 10:41:30;;;;;;;4.07;2.97;;;;;;;;;;5098092;28;20469;-74
2021/08/31 10:43:59;;;;;;;4.87;4.23;;;;;;;;;;5081259;28;20881;-74
2021/08/31 10:46:50;;;;;;;6.70;4.40;;;;;;;;;;5098148;28;20448;-73
2021/08/31 10:49:18;;;;;;;5.27;3.07;;;;;;;;;;5097266;28;20483;-74
2021/08/31 10:52:05;;;;;;;5.37;3.57;;;;;;;;;;5089369;28;20459;-73
2021/08/31 10:54:45;;;;;;;4.67;3.30;;;;;;;;;;5079835;28;20452;-73
2021/08/31 10:57:46;;;;;;;5.40;3.83;;;;;;;;;;5082922;28;21154;-74
2021/08/31 11:00:35;;;;;;;4.23;3.53;;;;;;;;;;5080140;28;20547;-75
2021/08/31 11:03:07;;;;;;;4.90;3.83;;;;;;;;;;5084601;28;20455;-72
2021/08/31 11:05:42;;;;;;;5.40;3.20;;;;;;;;;;5096771;28;20459;-74
2021/08/31 11:08:24;;;;;;;5.60;4.60;;;;;;;;;;5095982;28;20473;-74
2021/08/31 11:10:54;;;;;;;4.40;3.83;;;;;;;;;;5075169;28;20495;-74
2021/08/31 11:13:24;;;;;;;8.63;3.80;;;;;;;;;;5076307;28;20488;-74
2021/08/31 11:15:57;;;;;;;10.03;3.87;;;;;;;;;;5077246;28;20538;-74
2021/08/31 11:18:26;;;;;;;5.93;4.70;;;;;;;;;;5091209;28;20468;-72
2021/08/31 11:21:08;;;;;;;5.30;3.30;;;;;;;;;;5079541;28;20460;-73
2021/08/31 11:23:43;;;;;;;6.20;4.30;;;;;;;;;;5090059;28;20456;-72
2021/08/31 11:26:22;;;;;;;4.90;3.10;;;;;;;;;;5092108;28;20993;-75
2021/08/31 11:28:54;;;;;;;10.40;5.30;;;;;;;;;;5099597;28;20550;-72
2021/08/31 11:31:32;;;;;;;6.80;4.13;;;;;;;;;;5100065;28;20459;-73
2021/08/31 11:34:02;;;;;;;4.97;3.63;;;;;;;;;;5084876;28;20460;-72
2021/08/31 11:36:30;;;;;;;4.83;3.07;;;;;;;;;;5096628;28;20918;-73
2021/08/31 11:38:59;;;;;;;5.43;3.90;;;;;;;;;;5089931;28;20502;-74
2021/08/31 11:41:33;;;;;;;5.20;3.90;;;;;;;;;;5086394;28;22093;-73
2021/08/31 11:44:08;;;;;;;5.70;3.90;;;;;;;;;;5086036;28;20504;-74
2021/08/31 11:46:48;;;;;;;4.73;3.40;;;;;;;;;;5096323;28;20808;-74
2021/08/31 11:52:41;;;;;;;6.37;4.53;;;;;;;;;;5090540;28;20459;-74
2021/08/31 11:55:13;;;;;;;6.50;3.83;;;;;;;;;;5099156;28;20446;-74
2021/08/31 11:57:44;;;;;;;4.53;3.33;;;;;;;;;;5094366;28;20455;-74
2021/08/31 12:00:14;;;;;;;7.27;4.17;;;;;;;;;;5097458;28;20879;-74
2021/08/31 12:02:43;;;;;;;5.77;3.90;;;;;;;;;;5096076;28;20473;-74
2021/08/31 12:05:16;;;;;;;4.20;3.30;;;;;;;;;;5088620;28;20899;-73
2021/08/31 12:07:55;;;;;;;5.47;3.23;;;;;;;;;;5084032;28;20556;-73
2021/08/31 12:10:26;;;;;;;4.00;2.97;;;;;;;;;;5077534;28;20480;-74
2021/08/31 12:12:59;;;;;;;4.77;3.30;;;;;;;;;;5078420;28;20465;-74
2021/08/31 12:15:44;;;;;;;5.80;2.60;;;;;;;;;;5095805;28;20448;-74
2021/08/31 12:18:13;;;;;;;4.77;4.27;;;;;;;;;;5097023;28;20455;-74
2021/08/31 12:21:06;;;;;;;6.50;4.83;;;;;;;;;;5097451;28;20459;-74
2021/08/31 12:23:38;;;;;;;4.90;3.00;;;;;;;;;;5095458;28;20530;-74
2021/08/31 12:26:09;;;;;;;7.63;3.27;;;;;;;;;;5099797;28;20531;-75
2021/08/31 12:28:39;;;;;;;5.27;3.30;;;;;;;;;;5098484;28;20455;-74
2021/08/31 12:31:16;;;;;;;6.07;3.60;;;;;;;;;;5099640;28;20526;-73
2021/08/31 12:33:46;;;;;;;4.90;3.80;;;;;;;;;;5099582;28;20463;-74
2021/08/31 12:36:44;;;;;;;6.00;3.10;;;;;;;;;;5098464;28;20797;-74
2021/08/31 12:39:29;;;;;;;7.70;3.80;;;;;;;;;;5093388;28;20871;-74
2021/08/31 12:42:29;;;;;;;5.93;5.03;;;;;;;;;;5089744;28;20440;-73
2021/08/31 12:44:57;;;;;;;5.00;3.30;;;;;;;;;;5090940;28;20475;-73
2021/08/31 12:47:28;;;;;;;4.20;3.00;;;;;;;;;;5099678;28;20444;-72
2021/08/31 12:50:23;;;;;;;3.80;2.77;;;;;;;;;;5099041;28;20519;-74
2021/08/31 12:53:17;;;;;;;4.50;2.97;;;;;;;;;;5100426;28;20737;-74
2021/08/31 12:56:03;;;;;;;6.77;5.30;;;;;;;;;;5099194;28;20455;-73
2021/08/31 12:58:33;;;;;;;4.87;3.57;;;;;;;;;;5096670;28;20456;-75
2021/08/31 13:01:13;;;;;;;6.20;3.10;;;;;;;;;;5094426;28;20447;-74
2021/08/31 13:03:42;;;;;;;5.70;3.47;;;;;;;;;;5091350;28;20454;-72
2021/08/31 13:06:28;;;;;;;4.43;3.23;;;;;;;;;;5097758;28;20524;-73
2021/08/31 13:09:00;;;;;;;3.80;3.13;;;;;;;;;;5097323;28;20534;-73
2021/08/31 13:11:30;;;;;;;5.13;3.83;;;;;;;;;;5097418;28;20494;-73
2021/08/31 13:14:02;;;;;;;4.90;3.40;;;;;;;;;;5093098;28;20459;-73
2021/08/31 13:16:52;;;;;;;6.63;2.73;;;;;;;;;;5095190;28;20487;-74
2021/08/31 13:19:22;;;;;;;6.33;3.00;;;;;;;;;;5090884;28;20558;-75
2021/08/31 13:21:56;;;;;;;3.70;2.60;;;;;;;;;;5080942;28;20456;-73
2021/08/31 13:24:35;;;;;;;4.70;3.50;;;;;;;;;;5076179;28;20448;-75
2021/08/31 13:27:08;;;;;;;6.50;4.30;;;;;;;;;;5079047;28;20455;-75
2021/08/31 13:29:41;;;;;;;5.97;3.93;;;;;;;;;;5076642;28;20555;-75
2021/08/31 13:34:59;;;;;;;5.70;3.57;;;;;;;;;;5074137;28;20444;-73
2021/08/31 13:37:30;;;;;;;6.43;3.40;;;;;;;;;;5082908;28;20505;-74
2021/08/31 13:40:07;;;;;;;5.90;3.80;;;;;;;;;;5095288;28;20439;-75
2021/08/31 13:42:59;;;;;;;3.70;2.77;;;;;;;;;;5093291;28;20903;-75
2021/08/31 13:45:41;;;;;;;5.30;2.80;;;;;;;;;;5096143;28;20550;-76
2021/08/31 13:48:22;;;;;;;;;;;;;;;;;;;;;
2021/08/31 13:51:14;;;;;;;;;;;;;;;;;;;;;
2021/08/31 13:53:59;;;;;;;7.27;4.53;;;;;;;;;;5080078;28;20459;-74
2021/08/31 13:56:58;;;;;;;;;;;;;;;;;;;;;
2021/08/31 13:59:28;;;;;;;4.63;3.20;;;;;;;;;;5072930;28;20841;-73
2021/08/31 14:02:09;;;;;;;5.37;3.50;;;;;;;;;;5085852;28;20947;-74
2021/08/31 14:04:37;;;;;;;5.77;3.63;;;;;;;;;;5087664;28;20504;-74
2021/08/31 14:07:15;;;;;;;9.20;5.90;;;;;;;;;;5097855;28;20448;-73
2021/08/31 14:09:51;;;;;;;5.50;4.00;;;;;;;;;;5091611;28;20455;-74
2021/08/31 14:12:27;;;;;;;15.83;11.00;;;;;;;;;;5091468;28;20469;-75
2021/08/31 14:15:01;;;;;;;5.03;3.17;;;;;;;;;;5094963;28;20542;-75
2021/08/31 14:17:40;;;;;;;4.30;2.80;;;;;;;;;;5094466;28;20819;-76
2021/08/31 14:20:23;;;;;;;5.10;2.67;;;;;;;;;;5091540;28;20714;-73
2021/08/31 14:22:52;;;;;;;6.03;3.23;;;;;;;;;;5092280;28;20454;-75
2021/08/31 14:25:19;;;;;;;5.37;3.60;;;;;;;;;;5094106;28;20892;-74
2021/08/31 14:30:38;;;;;;;5.83;3.03;;;;;;;;;;5093418;28;20549;-73
2021/08/31 14:36:38;;;;;;;5.00;2.63;;;;;;;;;;5082367;28;20720;-73
2021/08/31 14:41:59;;;;;;;6.70;3.30;;;;;;;;;;5093110;28;20429;-73
2021/08/31 14:51:21;;;;;;;4.70;3.30;;;;;;;;;;5091934;28;20478;-74
2021/08/31 14:54:22;;;;;;;3.37;2.97;;;;;;;;;;5033887;28;21071;-74
2021/08/31 14:57:02;;;;;;;3.60;2.70;;;;;;;;;;5037334;28;20923;-73
2021/08/31 14:59:42;;;;;;;5.60;3.50;;;;;;;;;;5106720;28;20869;-74
2021/08/31 15:02:25;;;;;;;4.93;3.60;;;;;;;;;;5112544;28;20454;-77
2021/08/31 15:05:02;;;;;;;32.23;22.67;;;;;;;;;;5113130;28;20560;-73
2021/08/31 15:07:40;;;;;;;5.47;3.33;;;;;;;;;;5108797;28;20450;-74
2021/08/31 15:13:30;;;;;;;4.33;2.67;;;;;;;;;;5031298;28;20464;-74
2021/08/31 15:16:01;;;;;;;3.63;2.63;;;;;;;;;;5075531;28;21003;-74
2021/08/31 15:18:32;;;;;;;9.40;5.60;;;;;;;;;;5077782;28;20460;-74
2021/08/31 15:21:09;;;;;;;4.43;2.57;;;;;;;;;;5092668;28;20455;-74
2021/08/31 15:23:37;;;;;;;4.37;3.17;;;;;;;;;;5094392;28;20443;-75
2021/08/31 15:26:07;;;;;;;5.03;3.43;;;;;;;;;;5087309;28;20456;-73
2021/08/31 15:28:56;;;;;;;;;;;;;;;;;;;;;
2021/08/31 15:34:24;;;;;;;6.70;2.67;;;;;;;;;;5048978;28;20439;-75
2021/08/31 15:37:02;;;;;;;4.63;3.40;;;;;;;;;;5084362;28;20474;-74
2021/08/31 15:39:32;;;;;;;6.13;3.80;;;;;;;;;;5095564;28;20444;-74
2021/08/31 15:42:00;;;;;;;5.60;4.20;;;;;;;;;;5095099;28;20491;-73
2021/08/31 15:44:31;;;;;;;4.80;3.57;;;;;;;;;;5096635;28;20498;-73
2021/08/31 15:46:59;;;;;;;4.80;3.60;;;;;;;;;;5095690;28;20552;-73
2021/08/31 15:49:34;;;;;;;6.53;3.30;;;;;;;;;;5095593;28;20463;-73
2021/08/31 15:52:12;;;;;;;6.03;3.50;;;;;;;;;;5105344;28;20777;-73
2021/08/31 15:54:48;;;;;;;4.70;3.47;;;;;;;;;;5084420;28;20780;-73